Time;durP1;ratioP1;P1;durP2;ratioP2;P2;SDS_P1;SDS_P2;PMS_P1;PMS_P2;Temp;Humidity;BMP_temperature;BMP_pressure;BME280_temperature;BME280_humidity;BME280_pressure;Samples;Min_cycle;Max_cycle;Signal;HPM_P1;HPM_P2
2022/05/03 00:00:05;;;;;;;21.73;19.30;;;;;;;;;;773648;177;920877;-64
2022/05/03 00:02:37;;;;;;;22.20;17.87;;;;;;;;;;774213;177;920758;-64
2022/05/03 00:05:03;;;;;;;29.03;17.37;;;;;;;;;;772899;182;949100;-65
2022/05/03 00:07:35;;;;;;;23.93;19.60;;;;;;;;;;769733;182;914574;-65
2022/05/03 00:10:04;;;;;;;28.67;19.20;;;;;;;;;;769231;182;920665;-65
2022/05/03 00:12:30;;;;;;;29.20;21.63;;;;;;;;;;767327;182;920690;-65
2022/05/03 00:14:56;;;;;;;24.23;17.90;;;;;;;;;;771881;182;917430;-65
2022/05/03 00:17:22;;;;;;;25.80;18.87;;;;;;;;;;767209;180;921624;-65
2022/05/03 00:19:47;;;;;;;26.07;18.87;;;;;;;;;;767523;182;920740;-65
2022/05/03 00:22:13;;;;;;;29.33;20.70;;;;;;;;;;771070;182;914856;-65
2022/05/03 00:24:39;;;;;;;28.93;22.80;;;;;;;;;;767000;182;917737;-65
2022/05/03 00:27:05;;;;;;;25.65;18.65;;;;;;;;;;767548;182;913687;-64
2022/05/03 00:29:31;;;;;;;24.87;19.30;;;;;;;;;;766344;182;915406;-65
2022/05/03 00:31:56;;;;;;;27.90;19.07;;;;;;;;;;770385;182;919240;-64
2022/05/03 00:34:22;;;;;;;26.73;17.20;;;;;;;;;;767899;182;918616;-65
2022/05/03 00:36:48;;;;;;;29.37;20.05;;;;;;;;;;766985;182;1025405;-66
2022/05/03 00:39:14;;;;;;;23.57;18.50;;;;;;;;;;773974;182;919348;-65
2022/05/03 00:41:45;;;;;;;20.97;18.53;;;;;;;;;;764936;180;922045;-65
2022/05/03 00:44:55;;;;;;;21.80;17.10;;;;;;;;;;767534;181;924648;-65
2022/05/03 00:46:37;;;;;;;23.70;18.87;;;;;;;;;;768161;181;920136;-65
2022/05/03 00:49:09;;;;;;;22.60;18.50;;;;;;;;;;761629;183;918539;-65
2022/05/03 00:51:35;;;;;;;24.73;19.23;;;;;;;;;;768023;181;916737;-64
2022/05/03 00:54:01;;;;;;;24.47;17.33;;;;;;;;;;775246;176;918666;-65
2022/05/03 00:56:30;;;;;;;27.90;16.97;;;;;;;;;;775780;179;919335;-65
2022/05/03 00:59:13;;;;;;;24.97;17.30;;;;;;;;;;784130;178;919977;-65
2022/05/03 01:01:54;;;;;;;21.87;17.20;;;;;;;;;;757188;180;920650;-64
2022/05/03 01:04:25;;;;;;;24.03;17.33;;;;;;;;;;770837;180;919708;-64
2022/05/03 01:06:50;;;;;;;23.57;19.00;;;;;;;;;;776638;177;915392;-65
2022/05/03 01:09:16;;;;;;;23.13;17.43;;;;;;;;;;767509;182;919395;-65
2022/05/03 01:11:46;;;;;;;23.20;17.70;;;;;;;;;;774105;182;913704;-64
2022/05/03 01:14:12;;;;;;;24.63;19.23;;;;;;;;;;771864;182;914192;-65
2022/05/03 01:16:41;;;;;;;26.37;18.45;;;;;;;;;;770990;182;913563;-64
2022/05/03 01:19:13;;;;;;;26.27;17.90;;;;;;;;;;767338;182;1017106;-64
2022/05/03 01:21:40;;;;;;;24.03;19.00;;;;;;;;;;772976;182;915441;-64
2022/05/03 01:24:08;;;;;;;23.30;17.07;;;;;;;;;;756840;182;914954;-64
2022/05/03 01:26:34;;;;;;;26.87;19.10;;;;;;;;;;754235;182;915025;-64
2022/05/03 01:29:04;;;;;;;24.50;19.20;;;;;;;;;;767360;182;913378;-65
2022/05/03 01:31:30;;;;;;;29.70;19.80;;;;;;;;;;776327;179;916762;-64
2022/05/03 01:33:57;;;;;;;24.57;21.30;;;;;;;;;;767932;182;919859;-64
2022/05/03 01:36:23;;;;;;;25.40;19.70;;;;;;;;;;768515;182;914312;-64
2022/05/03 01:38:51;;;;;;;25.52;18.27;;;;;;;;;;773080;182;918544;-64
2022/05/03 01:41:18;;;;;;;22.20;18.37;;;;;;;;;;769222;182;918831;-64
2022/05/03 01:43:48;;;;;;;23.30;18.07;;;;;;;;;;773313;179;915825;-64
2022/05/03 01:46:13;;;;;;;26.60;20.10;;;;;;;;;;766071;179;914515;-65
2022/05/03 01:51:23;;;;;;;26.17;20.53;;;;;;;;;;788372;177;919868;-64
2022/05/03 01:53:49;;;;;;;23.10;19.30;;;;;;;;;;773239;175;919352;-64
2022/05/03 01:56:16;;;;;;;22.43;17.57;;;;;;;;;;769689;181;919310;-64
2022/05/03 01:58:43;;;;;;;22.10;18.60;;;;;;;;;;774541;182;919259;-64
2022/05/03 02:01:10;;;;;;;28.63;18.73;;;;;;;;;;770306;182;919380;-64
2022/05/03 02:03:40;;;;;;;27.40;19.77;;;;;;;;;;770990;182;918801;-64
2022/05/03 02:06:10;;;;;;;24.77;19.50;;;;;;;;;;768462;182;919230;-66
2022/05/03 02:08:39;;;;;;;27.13;20.87;;;;;;;;;;773632;182;919341;-64
2022/05/03 02:11:06;;;;;;;23.90;17.97;;;;;;;;;;777216;182;619619;-64
2022/05/03 02:16:14;;;;;;;26.80;19.80;;;;;;;;;;765497;182;919263;-63
2022/05/03 02:18:44;;;;;;;26.62;19.48;;;;;;;;;;768490;177;919656;-64
2022/05/03 02:21:10;;;;;;;27.47;19.53;;;;;;;;;;780491;176;918811;-64
2022/05/03 02:23:40;;;;;;;26.70;20.53;;;;;;;;;;767365;182;1012910;-65
2022/05/03 02:26:23;;;;;;;28.87;19.33;;;;;;;;;;774171;179;919663;-64
2022/05/03 02:28:49;;;;;;;25.73;18.33;;;;;;;;;;759996;183;920176;-63
2022/05/03 02:31:14;;;;;;;22.40;18.47;;;;;;;;;;768243;182;918745;-63
2022/05/03 02:33:45;;;;;;;30.00;18.53;;;;;;;;;;772651;182;919564;-64
2022/05/03 02:36:12;;;;;;;23.43;20.10;;;;;;;;;;767249;182;919077;-64
2022/05/03 02:38:38;;;;;;;19.90;16.98;;;;;;;;;;766486;182;919974;-63
2022/05/03 02:41:04;;;;;;;24.80;19.53;;;;;;;;;;769913;183;918333;-64
2022/05/03 02:43:30;;;;;;;25.67;18.83;;;;;;;;;;767958;182;919042;-63
2022/05/03 02:45:57;;;;;;;22.87;18.77;;;;;;;;;;769920;182;1021412;-64
2022/05/03 02:48:22;;;;;;;23.20;18.13;;;;;;;;;;767997;182;932589;-63
2022/05/03 02:50:53;;;;;;;24.93;18.60;;;;;;;;;;773175;182;919582;-63
2022/05/03 02:53:17;;;;;;;27.93;19.97;;;;;;;;;;767918;182;920009;-63
2022/05/03 02:55:50;;;;;;;23.48;19.92;;;;;;;;;;767164;182;919797;-63
2022/05/03 02:58:21;;;;;;;27.17;20.57;;;;;;;;;;769644;182;920674;-64
2022/05/03 03:03:31;;;;;;;23.33;19.27;;;;;;;;;;773164;182;919209;-64
2022/05/03 03:05:58;;;;;;;24.33;20.10;;;;;;;;;;758165;182;920192;-64
2022/05/03 03:08:23;;;;;;;24.17;18.25;;;;;;;;;;769556;181;918411;-63
2022/05/03 03:10:49;;;;;;;26.87;19.90;;;;;;;;;;775047;182;911560;-63
2022/05/03 03:13:15;;;;;;;26.87;18.90;;;;;;;;;;771028;182;916021;-64
2022/05/03 03:15:41;;;;;;;23.23;18.93;;;;;;;;;;770163;182;941226;-64
2022/05/03 03:18:07;;;;;;;24.93;19.67;;;;;;;;;;768701;179;919690;-64
2022/05/03 03:20:33;;;;;;;26.50;20.20;;;;;;;;;;773650;179;919735;-64
2022/05/03 03:22:59;;;;;;;22.83;19.53;;;;;;;;;;771259;182;920458;-64
2022/05/03 03:25:24;;;;;;;27.07;19.70;;;;;;;;;;772911;182;651241;-64
2022/05/03 03:27:51;;;;;;;25.47;19.90;;;;;;;;;;775280;182;657845;-64
2022/05/03 03:30:16;;;;;;;27.53;20.07;;;;;;;;;;770532;182;919417;-65
2022/05/03 03:32:45;;;;;;;30.60;20.52;;;;;;;;;;769073;182;917501;-64
2022/05/03 03:35:11;;;;;;;33.30;19.20;;;;;;;;;;771198;182;684796;-65
2022/05/03 03:37:37;;;;;;;23.13;19.20;;;;;;;;;;774285;182;618811;-65
2022/05/03 03:40:02;;;;;;;27.50;19.17;;;;;;;;;;768317;182;916287;-64
2022/05/03 03:42:28;;;;;;;20.60;17.67;;;;;;;;;;772601;177;918353;-65
2022/05/03 03:44:54;;;;;;;24.87;16.97;;;;;;;;;;772097;182;1008516;-64
2022/05/03 03:47:20;;;;;;;23.00;16.27;;;;;;;;;;768956;182;919367;-64
2022/05/03 03:49:46;;;;;;;25.17;18.55;;;;;;;;;;759296;180;2343056;-64
2022/05/03 03:52:13;;;;;;;25.90;18.20;;;;;;;;;;773638;182;921624;-64
2022/05/03 03:54:40;;;;;;;21.60;17.43;;;;;;;;;;773011;179;916762;-64
2022/05/03 03:57:04;;;;;;;22.30;17.43;;;;;;;;;;776193;177;914757;-64
2022/05/03 03:59:31;;;;;;;22.70;16.37;;;;;;;;;;771166;182;916638;-64
2022/05/03 04:01:55;;;;;;;25.63;17.63;;;;;;;;;;770632;179;919702;-65
2022/05/03 04:04:21;;;;;;;20.75;16.90;;;;;;;;;;770115;182;918892;-64
2022/05/03 04:06:47;;;;;;;21.73;17.30;;;;;;;;;;768167;182;919053;-65
2022/05/03 04:09:13;;;;;;;20.60;15.33;;;;;;;;;;775609;182;618974;-64
2022/05/03 04:11:41;;;;;;;25.25;16.15;;;;;;;;;;772560;179;815418;-65
2022/05/03 04:14:07;;;;;;;39.90;16.70;;;;;;;;;;772072;182;633026;-65
2022/05/03 04:16:33;;;;;;;28.30;17.67;;;;;;;;;;776867;179;635984;-65
2022/05/03 04:18:59;;;;;;;23.40;16.27;;;;;;;;;;774649;181;633219;-65
2022/05/03 04:21:24;;;;;;;18.17;15.70;;;;;;;;;;769068;182;918942;-65
2022/05/03 04:23:51;;;;;;;25.10;17.13;;;;;;;;;;773953;181;617066;-65
2022/05/03 04:26:16;;;;;;;22.30;15.97;;;;;;;;;;770149;182;636384;-65
2022/05/03 04:28:42;;;;;;;20.35;15.57;;;;;;;;;;769972;182;918729;-65
2022/05/03 04:31:08;;;;;;;34.47;23.30;;;;;;;;;;773108;182;635363;-65
2022/05/03 04:33:34;;;;;;;29.73;18.57;;;;;;;;;;775922;182;919050;-65
2022/05/03 04:36:00;;;;;;;23.73;16.50;;;;;;;;;;770867;182;919281;-65
2022/05/03 04:38:26;;;;;;;21.83;16.47;;;;;;;;;;773087;177;918834;-65
2022/05/03 04:40:57;;;;;;;28.90;17.00;;;;;;;;;;776383;179;737343;-65
2022/05/03 04:43:23;;;;;;;25.03;16.30;;;;;;;;;;771949;179;630530;-65
2022/05/03 04:45:50;;;;;;;26.33;16.20;;;;;;;;;;771521;177;921406;-65
2022/05/03 04:48:15;;;;;;;20.75;15.50;;;;;;;;;;769603;182;917014;-65
2022/05/03 04:50:41;;;;;;;21.67;17.00;;;;;;;;;;773787;182;918791;-65
2022/05/03 04:53:06;;;;;;;22.23;16.50;;;;;;;;;;769292;182;1021224;-65
2022/05/03 04:55:32;;;;;;;20.50;16.17;;;;;;;;;;767042;182;916335;-65
2022/05/03 04:57:58;;;;;;;19.20;15.83;;;;;;;;;;772757;182;916358;-65
2022/05/03 05:00:24;;;;;;;20.00;16.60;;;;;;;;;;767769;182;920063;-65
2022/05/03 05:02:50;;;;;;;22.40;17.37;;;;;;;;;;770815;182;628805;-66
2022/05/03 05:05:16;;;;;;;18.00;15.50;;;;;;;;;;772296;182;919335;-65
2022/05/03 05:07:42;;;;;;;22.03;16.33;;;;;;;;;;767038;182;919546;-65
2022/05/03 05:12:39;;;;;;;26.97;19.50;;;;;;;;;;765874;182;919410;-64
2022/05/03 05:15:05;;;;;;;28.33;20.33;;;;;;;;;;778696;178;919580;-64
2022/05/03 05:17:33;;;;;;;38.00;25.40;;;;;;;;;;767640;182;919586;-64
2022/05/03 05:19:59;;;;;;;40.50;30.73;;;;;;;;;;780269;177;919389;-64
2022/05/03 05:22:25;;;;;;;28.93;23.30;;;;;;;;;;771370;179;919097;-65
2022/05/03 05:24:51;;;;;;;20.93;16.23;;;;;;;;;;769719;182;918678;-64
2022/05/03 05:27:17;;;;;;;21.47;16.13;;;;;;;;;;767620;182;984527;-64
2022/05/03 05:29:42;;;;;;;25.57;18.47;;;;;;;;;;770014;180;919272;-64
2022/05/03 05:32:09;;;;;;;20.03;16.60;;;;;;;;;;777756;178;920013;-65
2022/05/03 05:34:35;;;;;;;18.37;16.23;;;;;;;;;;771357;176;918526;-65
2022/05/03 05:37:01;;;;;;;24.92;16.62;;;;;;;;;;769374;181;919535;-65
2022/05/03 05:39:26;;;;;;;20.03;15.93;;;;;;;;;;773107;182;920123;-65
2022/05/03 05:41:55;;;;;;;22.10;17.77;;;;;;;;;;770416;182;918664;-65
2022/05/03 05:44:20;;;;;;;20.20;16.90;;;;;;;;;;777416;175;920270;-65
2022/05/03 05:46:46;;;;;;;20.67;15.98;;;;;;;;;;770412;182;919640;-65
2022/05/03 05:49:12;;;;;;;22.30;15.53;;;;;;;;;;762392;184;918936;-65
2022/05/03 05:51:38;;;;;;;22.20;15.90;;;;;;;;;;755338;185;919060;-64
2022/05/03 05:54:04;;;;;;;20.57;17.03;;;;;;;;;;766843;182;958197;-65
2022/05/03 05:56:30;;;;;;;21.37;16.13;;;;;;;;;;783871;177;918951;-65
2022/05/03 05:58:56;;;;;;;23.73;14.47;;;;;;;;;;774909;179;919510;-66
2022/05/03 06:01:23;;;;;;;19.73;15.40;;;;;;;;;;769591;182;919401;-66
2022/05/03 06:03:49;;;;;;;24.90;17.97;;;;;;;;;;776636;182;919012;-66
2022/05/03 06:06:15;;;;;;;20.33;18.00;;;;;;;;;;768969;182;920275;-65
2022/05/03 06:08:41;;;;;;;18.27;16.30;;;;;;;;;;770210;182;919472;-66
2022/05/03 06:11:08;;;;;;;18.37;16.27;;;;;;;;;;771430;182;919211;-65
2022/05/03 06:13:33;;;;;;;22.60;15.90;;;;;;;;;;777396;180;919046;-66
2022/05/03 06:16:10;;;;;;;18.97;16.70;;;;;;;;;;770712;182;919601;-66
2022/05/03 06:18:39;;;;;;;19.80;16.30;;;;;;;;;;783896;178;918925;-64
2022/05/03 06:21:07;;;;;;;23.10;18.23;;;;;;;;;;771427;182;920514;-65
2022/05/03 06:23:31;;;;;;;22.67;15.40;;;;;;;;;;776122;182;919495;-65
2022/05/03 06:25:56;;;;;;;27.73;15.43;;;;;;;;;;770025;182;919124;-66
2022/05/03 06:28:23;;;;;;;22.47;16.33;;;;;;;;;;772286;182;883648;-64
2022/05/03 06:30:48;;;;;;;23.17;17.63;;;;;;;;;;774928;182;618039;-67
2022/05/03 06:33:14;;;;;;;26.23;17.10;;;;;;;;;;772988;182;628417;-66
2022/05/03 06:35:40;;;;;;;24.07;16.10;;;;;;;;;;773277;182;625341;-67
2022/05/03 06:38:06;;;;;;;15.13;13.20;;;;;;;;;;777255;182;616715;-65
2022/05/03 06:40:31;;;;;;;17.10;15.10;;;;;;;;;;774182;181;659240;-67
2022/05/03 06:42:57;;;;;;;18.47;15.03;;;;;;;;;;774577;181;649059;-67
2022/05/03 06:45:23;;;;;;;18.40;15.57;;;;;;;;;;773411;181;612963;-66
2022/05/03 06:47:49;;;;;;;22.57;14.43;;;;;;;;;;773033;182;626450;-67
2022/05/03 06:50:15;;;;;;;20.13;15.27;;;;;;;;;;772050;182;616777;-67
2022/05/03 06:52:41;;;;;;;17.37;13.30;;;;;;;;;;773817;177;619150;-67
2022/05/03 06:55:07;;;;;;;17.90;16.00;;;;;;;;;;785016;177;628961;-67
2022/05/03 06:57:33;;;;;;;16.50;12.93;;;;;;;;;;772189;182;626673;-68
2022/05/03 07:00:01;;;;;;;17.03;14.53;;;;;;;;;;773473;182;631947;-67
2022/05/03 07:02:24;;;;;;;13.87;12.07;;;;;;;;;;773917;183;626594;-67
2022/05/03 07:04:50;;;;;;;17.93;14.20;;;;;;;;;;770314;182;623091;-68
2022/05/03 07:07:16;;;;;;;14.57;12.70;;;;;;;;;;767444;183;907417;-68
2022/05/03 07:09:42;;;;;;;18.00;13.00;;;;;;;;;;772924;179;919483;-67
2022/05/03 07:12:09;;;;;;;16.40;13.40;;;;;;;;;;768767;180;614007;-68
2022/05/03 07:14:35;;;;;;;15.80;12.80;;;;;;;;;;758877;185;634023;-69
2022/05/03 07:17:00;;;;;;;14.90;12.50;;;;;;;;;;759937;181;619403;-68
2022/05/03 07:24:29;;;;;;;19.53;12.10;;;;;;;;;;772031;182;623679;-68
2022/05/03 07:26:55;;;;;;;15.63;12.20;;;;;;;;;;777243;179;629026;-68
2022/05/03 07:29:21;;;;;;;14.60;12.93;;;;;;;;;;762496;185;609753;-68
2022/05/03 07:31:47;;;;;;;18.50;13.53;;;;;;;;;;743984;189;617178;-68
2022/05/03 07:34:13;;;;;;;22.73;13.13;;;;;;;;;;751243;187;639229;-68
2022/05/03 07:36:39;;;;;;;16.70;11.97;;;;;;;;;;755469;187;629777;-68
2022/05/03 07:39:04;;;;;;;17.03;12.97;;;;;;;;;;751370;187;635707;-68
2022/05/03 07:41:30;;;;;;;16.00;12.80;;;;;;;;;;765778;184;644577;-69
2022/05/03 07:43:56;;;;;;;16.10;12.50;;;;;;;;;;771362;183;636414;-70
2022/05/03 07:46:22;;;;;;;16.37;13.60;;;;;;;;;;765470;182;619965;-69
2022/05/03 07:48:48;;;;;;;19.10;13.10;;;;;;;;;;754036;185;623951;-70
2022/05/03 07:51:14;;;;;;;18.03;12.63;;;;;;;;;;781798;176;637557;-69
2022/05/03 07:53:40;;;;;;;15.53;12.50;;;;;;;;;;795175;175;634366;-68
2022/05/03 07:56:05;;;;;;;20.20;13.20;;;;;;;;;;776085;182;620919;-70
2022/05/03 07:58:31;;;;;;;15.43;12.60;;;;;;;;;;775457;182;617042;-69
2022/05/03 08:00:57;;;;;;;15.60;13.53;;;;;;;;;;777645;182;628177;-69
2022/05/03 08:03:23;;;;;;;21.60;13.10;;;;;;;;;;776944;178;627845;-68
2022/05/03 08:05:50;;;;;;;18.47;13.53;;;;;;;;;;778375;175;616578;-68
2022/05/03 08:08:16;;;;;;;20.27;13.50;;;;;;;;;;777778;182;629574;-69
2022/05/03 08:10:41;;;;;;;16.97;12.13;;;;;;;;;;774690;182;619419;-68
2022/05/03 08:13:06;;;;;;;15.87;12.67;;;;;;;;;;774522;182;628131;-67
2022/05/03 08:15:32;;;;;;;21.03;12.17;;;;;;;;;;773473;182;662973;-68
2022/05/03 08:17:59;;;;;;;18.53;12.60;;;;;;;;;;776706;182;672040;-66
2022/05/03 08:20:25;;;;;;;12.50;11.20;;;;;;;;;;773500;182;626134;-67
2022/05/03 08:22:51;;;;;;;14.80;10.97;;;;;;;;;;772550;182;629549;-67
2022/05/03 08:25:16;;;;;;;18.90;11.33;;;;;;;;;;776880;182;628787;-67
2022/05/03 08:27:42;;;;;;;13.90;11.50;;;;;;;;;;772290;182;631054;-68
2022/05/03 08:30:09;;;;;;;17.10;11.47;;;;;;;;;;773089;182;623347;-66
2022/05/03 08:32:34;;;;;;;19.00;12.10;;;;;;;;;;776072;182;621402;-67
2022/05/03 08:35:00;;;;;;;16.73;11.37;;;;;;;;;;772039;182;620757;-68
2022/05/03 08:42:29;;;;;;;14.80;10.37;;;;;;;;;;777014;182;631595;-72
2022/05/03 08:44:56;;;;;;;13.23;10.20;;;;;;;;;;785289;177;619075;-69
2022/05/03 08:47:21;;;;;;;11.63;8.73;;;;;;;;;;775088;178;622519;-71
2022/05/03 08:49:52;;;;;;;11.90;8.57;;;;;;;;;;777348;178;619161;-70
2022/05/03 08:52:18;;;;;;;17.10;10.30;;;;;;;;;;789763;177;642057;-71
2022/05/03 08:54:44;;;;;;;12.00;9.43;;;;;;;;;;789368;177;655104;-69
2022/05/03 08:57:10;;;;;;;15.40;9.97;;;;;;;;;;769840;183;619172;-70
2022/05/03 08:59:36;;;;;;;15.57;9.57;;;;;;;;;;775359;182;622687;-69
2022/05/03 09:02:02;;;;;;;13.23;9.90;;;;;;;;;;771139;182;618069;-68
2022/05/03 09:04:27;;;;;;;16.90;10.50;;;;;;;;;;773748;179;638825;-69
2022/05/03 09:06:53;;;;;;;14.33;9.50;;;;;;;;;;774707;181;624555;-69
2022/05/03 09:09:19;;;;;;;14.20;9.43;;;;;;;;;;779164;181;618902;-69
2022/05/03 09:11:46;;;;;;;14.30;10.57;;;;;;;;;;775669;181;676245;-69
2022/05/03 09:14:11;;;;;;;13.10;9.53;;;;;;;;;;778227;178;665981;-71
2022/05/03 09:16:51;;;;;;;15.53;9.87;;;;;;;;;;777057;178;628586;-69
2022/05/03 09:19:22;;;;;;;17.50;9.70;;;;;;;;;;782094;177;631817;-68
2022/05/03 09:24:19;;;;;;;12.30;10.43;;;;;;;;;;774718;182;630151;-69
2022/05/03 09:26:45;;;;;;;13.30;10.37;;;;;;;;;;773131;182;634591;-70
2022/05/03 09:29:11;;;;;;;15.17;10.43;;;;;;;;;;777194;182;619092;-69
2022/05/03 09:31:37;;;;;;;14.10;10.20;;;;;;;;;;772517;182;630533;-70
2022/05/03 09:34:04;;;;;;;10.40;8.00;;;;;;;;;;772579;182;641983;-70
2022/05/03 09:36:30;;;;;;;10.80;8.87;;;;;;;;;;774009;182;627547;-70
2022/05/03 09:38:56;;;;;;;11.13;9.93;;;;;;;;;;767450;182;626940;-68
2022/05/03 09:41:21;;;;;;;11.90;9.77;;;;;;;;;;772923;182;629257;-69
2022/05/03 09:43:53;;;;;;;14.73;8.80;;;;;;;;;;787033;175;630063;-70
2022/05/03 09:46:19;;;;;;;15.37;9.60;;;;;;;;;;774179;182;701734;-69
2022/05/03 09:48:51;;;;;;;10.73;9.33;;;;;;;;;;769851;182;904009;-68
2022/05/03 09:51:17;;;;;;;15.53;9.70;;;;;;;;;;773099;182;625393;-69
2022/05/03 09:53:42;;;;;;;12.17;9.80;;;;;;;;;;773987;182;629756;-70
2022/05/03 09:56:08;;;;;;;12.17;10.07;;;;;;;;;;774445;182;623847;-68
2022/05/03 09:58:35;;;;;;;12.43;9.47;;;;;;;;;;770888;182;655159;-71
2022/05/03 10:01:00;;;;;;;12.37;8.93;;;;;;;;;;776346;177;618530;-69
2022/05/03 10:03:26;;;;;;;19.63;9.53;;;;;;;;;;778600;179;618132;-70
2022/05/03 10:05:52;;;;;;;11.30;8.30;;;;;;;;;;769717;182;627441;-68
2022/05/03 10:08:18;;;;;;;12.17;9.13;;;;;;;;;;778701;177;635978;-66
2022/05/03 10:10:44;;;;;;;10.40;8.20;;;;;;;;;;776018;182;628319;-68
2022/05/03 10:13:09;;;;;;;11.50;8.87;;;;;;;;;;772372;182;628388;-67
2022/05/03 10:20:40;;;;;;;11.97;10.17;;;;;;;;;;776643;181;630978;-69
2022/05/03 10:23:11;;;;;;;11.40;8.20;;;;;;;;;;771980;181;919305;-65
2022/05/03 10:25:50;;;;;;;8.53;6.70;;;;;;;;;;772962;182;625911;-69
2022/05/03 10:28:15;;;;;;;9.43;7.50;;;;;;;;;;767142;182;919092;-67
2022/05/03 10:30:47;;;;;;;9.93;8.40;;;;;;;;;;771629;182;675920;-68
2022/05/03 10:33:35;;;;;;;12.00;8.30;;;;;;;;;;780258;182;616787;-67
2022/05/03 10:36:00;;;;;;;11.27;8.60;;;;;;;;;;773870;182;653137;-69
2022/05/03 10:38:32;;;;;;;10.60;6.37;;;;;;;;;;778283;178;630898;-69
2022/05/03 10:40:58;;;;;;;14.43;7.30;;;;;;;;;;788803;178;635918;-69
2022/05/03 10:43:25;;;;;;;11.13;7.60;;;;;;;;;;775389;182;736133;-69
2022/05/03 10:45:53;;;;;;;9.90;6.17;;;;;;;;;;784316;178;617623;-70
2022/05/03 10:48:23;;;;;;;9.77;6.37;;;;;;;;;;757776;185;620020;-69
2022/05/03 10:50:48;;;;;;;12.50;7.53;;;;;;;;;;772166;177;626646;-68
2022/05/03 10:53:15;;;;;;;8.33;6.50;;;;;;;;;;771452;182;633203;-69
2022/05/03 10:55:58;;;;;;;12.23;6.50;;;;;;;;;;776873;182;627395;-69
2022/05/03 10:58:26;;;;;;;7.60;6.20;;;;;;;;;;771935;182;915505;-67
2022/05/03 11:00:58;;;;;;;17.07;6.33;;;;;;;;;;779560;179;632211;-65
2022/05/03 11:03:24;;;;;;;8.03;6.10;;;;;;;;;;775809;182;619105;-68
2022/05/03 11:05:55;;;;;;;8.47;6.23;;;;;;;;;;775527;182;656133;-68
2022/05/03 11:08:21;;;;;;;8.30;5.90;;;;;;;;;;757365;184;616092;-68
2022/05/03 11:10:47;;;;;;;8.87;6.83;;;;;;;;;;762911;182;635837;-69
2022/05/03 11:13:19;;;;;;;11.40;6.70;;;;;;;;;;771483;179;637034;-69
2022/05/03 11:15:50;;;;;;;11.83;7.80;;;;;;;;;;786696;177;632080;-69
2022/05/03 11:18:16;;;;;;;13.67;8.10;;;;;;;;;;772130;180;618961;-67
2022/05/03 11:20:42;;;;;;;11.00;8.07;;;;;;;;;;755985;185;618260;-69
2022/05/03 11:23:08;;;;;;;8.80;7.50;;;;;;;;;;762906;185;637260;-69
2022/05/03 11:25:34;;;;;;;9.93;7.60;;;;;;;;;;766487;185;618234;-69
2022/05/03 11:27:59;;;;;;;11.67;7.07;;;;;;;;;;765061;183;616569;-68
2022/05/03 11:30:25;;;;;;;12.33;7.00;;;;;;;;;;764678;185;625555;-69
2022/05/03 11:32:51;;;;;;;12.73;6.30;;;;;;;;;;764278;185;621482;-68
2022/05/03 11:35:17;;;;;;;9.43;7.03;;;;;;;;;;775646;180;614219;-69
2022/05/03 11:37:45;;;;;;;11.13;7.03;;;;;;;;;;772905;182;623924;-67
2022/05/03 11:40:10;;;;;;;9.50;6.83;;;;;;;;;;771492;180;629197;-67
2022/05/03 11:42:38;;;;;;;15.07;8.50;;;;;;;;;;789218;176;657298;-71
2022/05/03 11:45:04;;;;;;;9.40;7.50;;;;;;;;;;769379;182;618893;-70
2022/05/03 11:47:30;;;;;;;16.03;7.80;;;;;;;;;;771775;182;626722;-71
2022/05/03 11:49:55;;;;;;;10.87;6.10;;;;;;;;;;772750;182;619320;-69
2022/05/03 11:57:25;;;;;;;7.37;5.00;;;;;;;;;;775065;182;628202;-70
2022/05/03 11:59:50;;;;;;;9.10;5.03;;;;;;;;;;779569;182;616279;-71
2022/05/03 12:02:19;;;;;;;6.03;4.50;;;;;;;;;;775573;182;629039;-69
2022/05/03 12:04:51;;;;;;;7.93;4.70;;;;;;;;;;771385;180;625242;-69
2022/05/03 12:07:19;;;;;;;4.97;3.67;;;;;;;;;;773647;177;632784;-67
2022/05/03 12:09:45;;;;;;;4.20;3.37;;;;;;;;;;781592;175;618791;-67
2022/05/03 12:14:42;;;;;;;10.30;3.23;;;;;;;;;;772376;182;620730;-70
2022/05/03 12:17:08;;;;;;;5.10;3.27;;;;;;;;;;777620;177;622444;-69
2022/05/03 12:19:35;;;;;;;4.13;2.30;;;;;;;;;;777557;176;628430;-69
2022/05/03 12:22:15;;;;;;;4.10;2.50;;;;;;;;;;785916;176;627269;-69
2022/05/03 12:24:42;;;;;;;6.50;3.47;;;;;;;;;;778973;178;619088;-69
2022/05/03 12:27:09;;;;;;;5.37;3.33;;;;;;;;;;789007;178;633371;-68
2022/05/03 12:29:35;;;;;;;6.60;2.80;;;;;;;;;;779043;179;621299;-68
2022/05/03 12:32:01;;;;;;;5.20;3.93;;;;;;;;;;771656;180;626122;-67
2022/05/03 12:34:32;;;;;;;7.03;5.30;;;;;;;;;;776004;179;623203;-68
2022/05/03 12:36:53;;;;;;;7.60;5.70;;;;;;;;;;775663;182;623366;-69
2022/05/03 12:39:19;;;;;;;8.43;6.47;;;;;;;;;;789237;177;631478;-69
2022/05/03 12:41:46;;;;;;;7.67;6.43;;;;;;;;;;773084;181;623090;-70
2022/05/03 12:44:12;;;;;;;9.10;7.27;;;;;;;;;;771386;180;625064;-68
2022/05/03 12:46:38;;;;;;;13.10;7.20;;;;;;;;;;772403;181;919369;-68
2022/05/03 12:49:04;;;;;;;12.70;9.30;;;;;;;;;;771285;182;919377;-72
2022/05/03 12:51:29;;;;;;;9.73;8.20;;;;;;;;;;773320;182;645229;-70
2022/05/03 12:53:55;;;;;;;13.23;9.00;;;;;;;;;;788724;178;631415;-70
2022/05/03 12:58:53;;;;;;;8.20;7.13;;;;;;;;;;773242;182;625269;-68
2022/05/03 13:01:18;;;;;;;10.87;7.60;;;;;;;;;;773002;182;630396;-69
2022/05/03 13:03:47;;;;;;;21.43;8.50;;;;;;;;;;776303;182;623077;-70
2022/05/03 13:06:10;;;;;;;10.63;8.87;;;;;;;;;;772537;182;623869;-67
2022/05/03 13:08:36;;;;;;;12.00;9.23;;;;;;;;;;772990;182;631797;-70
2022/05/03 13:11:02;;;;;;;12.20;10.87;;;;;;;;;;785175;179;630250;-71
2022/05/03 13:13:28;;;;;;;13.23;10.57;;;;;;;;;;770457;182;628947;-68
2022/05/03 13:15:54;;;;;;;18.47;11.57;;;;;;;;;;769593;183;627642;-69
2022/05/03 13:18:20;;;;;;;15.60;11.53;;;;;;;;;;769990;182;616710;-69
2022/05/03 13:20:45;;;;;;;18.50;12.23;;;;;;;;;;775063;182;616952;-68
2022/05/03 13:23:11;;;;;;;15.77;11.90;;;;;;;;;;781688;175;617396;-68
2022/05/03 13:25:37;;;;;;;16.17;12.55;;;;;;;;;;778160;177;637144;-71
2022/05/03 13:28:05;;;;;;;15.60;13.87;;;;;;;;;;776879;177;625214;-69
2022/05/03 13:30:29;;;;;;;17.43;12.83;;;;;;;;;;779560;177;895227;-67
2022/05/03 13:32:55;;;;;;;16.57;11.37;;;;;;;;;;767402;182;956407;-67
2022/05/03 13:40:28;;;;;;;17.40;12.50;;;;;;;;;;776506;182;638959;-69
2022/05/03 13:42:49;;;;;;;21.53;13.43;;;;;;;;;;772068;182;629640;-69
2022/05/03 13:45:16;;;;;;;16.87;13.70;;;;;;;;;;780172;178;915928;-71
2022/05/03 13:47:41;;;;;;;14.70;12.23;;;;;;;;;;769843;182;624287;-71
2022/05/03 13:50:07;;;;;;;17.60;12.30;;;;;;;;;;778140;179;626376;-70
2022/05/03 13:52:36;;;;;;;20.00;11.60;;;;;;;;;;772468;181;617948;-69
2022/05/03 13:54:59;;;;;;;12.43;10.80;;;;;;;;;;757771;183;643312;-71
2022/05/03 13:57:26;;;;;;;16.20;10.90;;;;;;;;;;775267;182;650710;-70
2022/05/03 13:59:51;;;;;;;12.93;11.50;;;;;;;;;;773576;183;634408;-70
2022/05/03 14:02:17;;;;;;;13.70;11.00;;;;;;;;;;777812;182;624508;-69
2022/05/03 14:04:42;;;;;;;13.67;10.97;;;;;;;;;;775957;182;638071;-70
2022/05/03 14:07:08;;;;;;;13.50;11.60;;;;;;;;;;778988;178;649137;-70
2022/05/03 14:09:34;;;;;;;18.17;11.27;;;;;;;;;;760829;185;624155;-71
2022/05/03 14:12:00;;;;;;;18.53;11.20;;;;;;;;;;753954;185;636942;-71
2022/05/03 14:14:26;;;;;;;14.90;11.20;;;;;;;;;;754035;187;616445;-70
2022/05/03 14:16:52;;;;;;;17.15;11.40;;;;;;;;;;765117;183;742315;-70
2022/05/03 14:19:18;;;;;;;11.80;10.37;;;;;;;;;;761746;182;627866;-69
2022/05/03 14:21:45;;;;;;;11.90;9.90;;;;;;;;;;761513;182;616049;-69
2022/05/03 14:24:10;;;;;;;10.60;8.60;;;;;;;;;;765608;184;635766;-70
2022/05/03 14:26:35;;;;;;;12.43;8.30;;;;;;;;;;774863;182;618997;-68
2022/05/03 14:29:01;;;;;;;13.20;10.40;;;;;;;;;;772247;180;628028;-68
2022/05/03 14:31:27;;;;;;;11.30;7.97;;;;;;;;;;790256;178;635775;-70
2022/05/03 14:33:53;;;;;;;9.93;7.73;;;;;;;;;;756094;185;918692;-70
2022/05/03 14:36:19;;;;;;;8.80;7.60;;;;;;;;;;771359;182;919474;-68
2022/05/03 14:38:45;;;;;;;16.13;7.40;;;;;;;;;;775205;182;641712;-66
2022/05/03 14:41:10;;;;;;;9.60;7.10;;;;;;;;;;789791;179;709728;-69
2022/05/03 14:43:36;;;;;;;12.43;9.07;;;;;;;;;;787601;175;634273;-69
2022/05/03 14:46:03;;;;;;;17.97;8.00;;;;;;;;;;752105;185;616162;-68
2022/05/03 14:48:29;;;;;;;9.63;7.10;;;;;;;;;;779741;178;627358;-70